sensor_id;sensor_type;location;lat;lon;timestamp;temperature;humidity
44477;DHT22;30180;44.788;10.366;2022-12-10T00:01:39;17.00;68.50
44477;DHT22;30180;44.788;10.366;2022-12-10T00:04:08;17.00;68.50
44477;DHT22;30180;44.788;10.366;2022-12-10T00:06:37;17.10;68.60
44477;DHT22;30180;44.788;10.366;2022-12-10T00:09:09;17.10;68.60
44477;DHT22;30180;44.788;10.366;2022-12-10T00:11:39;17.10;68.60
44477;DHT22;30180;44.788;10.366;2022-12-10T00:14:09;17.00;68.50
44477;DHT22;30180;44.788;10.366;2022-12-10T00:16:39;17.00;68.50
44477;DHT22;30180;44.788;10.366;2022-12-10T00:19:07;17.00;68.50
44477;DHT22;30180;44.788;10.366;2022-12-10T00:21:36;17.00;68.50
44477;DHT22;30180;44.788;10.366;2022-12-10T00:24:05;17.00;68.50
44477;DHT22;30180;44.788;10.366;2022-12-10T00:26:36;17.00;68.50
44477;DHT22;30180;44.788;10.366;2022-12-10T00:29:09;17.00;68.50
44477;DHT22;30180;44.788;10.366;2022-12-10T00:31:38;17.00;68.50
44477;DHT22;30180;44.788;10.366;2022-12-10T00:34:08;17.00;68.50
44477;DHT22;30180;44.788;10.366;2022-12-10T00:36:39;17.00;69.10
44477;DHT22;30180;44.788;10.366;2022-12-10T00:39:10;17.00;68.50
44477;DHT22;30180;44.788;10.366;2022-12-10T00:41:38;17.00;68.50
44477;DHT22;30180;44.788;10.366;2022-12-10T00:44:08;17.00;68.50
44477;DHT22;30180;44.788;10.366;2022-12-10T00:46:36;17.00;68.50
44477;DHT22;30180;44.788;10.366;2022-12-10T00:49:05;17.00;68.50
44477;DHT22;30180;44.788;10.366;2022-12-10T00:51:33;17.00;68.50
44477;DHT22;30180;44.788;10.366;2022-12-10T00:54:01;16.90;68.40
44477;DHT22;30180;44.788;10.366;2022-12-10T00:56:31;17.00;68.50
44477;DHT22;30180;44.788;10.366;2022-12-10T00:59:01;16.90;68.40
44477;DHT22;30180;44.788;10.366;2022-12-10T01:01:32;17.00;68.50
44477;DHT22;30180;44.788;10.366;2022-12-10T01:04:03;16.90;68.40
44477;DHT22;30180;44.788;10.366;2022-12-10T01:06:33;16.90;68.50
44477;DHT22;30180;44.788;10.366;2022-12-10T01:09:05;16.90;68.40
44477;DHT22;30180;44.788;10.366;2022-12-10T01:11:37;16.90;68.40
44477;DHT22;30180;44.788;10.366;2022-12-10T01:14:07;16.90;68.40
44477;DHT22;30180;44.788;10.366;2022-12-10T01:16:37;16.90;68.50
44477;DHT22;30180;44.788;10.366;2022-12-10T01:19:05;16.90;68.50
44477;DHT22;30180;44.788;10.366;2022-12-10T01:21:35;16.90;68.50
44477;DHT22;30180;44.788;10.366;2022-12-10T01:24:04;16.90;68.50
44477;DHT22;30180;44.788;10.366;2022-12-10T01:26:34;16.90;68.40
44477;DHT22;30180;44.788;10.366;2022-12-10T01:29:03;16.90;68.50
44477;DHT22;30180;44.788;10.366;2022-12-10T01:31:34;16.90;68.50
44477;DHT22;30180;44.788;10.366;2022-12-10T01:34:05;16.90;68.50
44477;DHT22;30180;44.788;10.366;2022-12-10T01:36:34;16.90;68.50
44477;DHT22;30180;44.788;10.366;2022-12-10T01:39:05;16.90;68.40
44477;DHT22;30180;44.788;10.366;2022-12-10T01:41:36;16.90;68.50
44477;DHT22;30180;44.788;10.366;2022-12-10T01:47:13;16.90;68.40
44477;DHT22;30180;44.788;10.366;2022-12-10T01:49:41;16.90;68.50
44477;DHT22;30180;44.788;10.366;2022-12-10T01:52:11;16.80;69.10
44477;DHT22;30180;44.788;10.366;2022-12-10T01:54:42;16.90;68.50
44477;DHT22;30180;44.788;10.366;2022-12-10T01:57:13;16.80;68.40
44477;DHT22;30180;44.788;10.366;2022-12-10T01:59:43;16.80;68.40
44477;DHT22;30180;44.788;10.366;2022-12-10T02:02:19;16.80;68.40
44477;DHT22;30180;44.788;10.366;2022-12-10T02:04:56;16.80;68.40
44477;DHT22;30180;44.788;10.366;2022-12-10T02:07:39;16.80;68.50
44477;DHT22;30180;44.788;10.366;2022-12-10T02:10:15;16.80;68.50
44477;DHT22;30180;44.788;10.366;2022-12-10T02:12:48;16.80;68.40
44477;DHT22;30180;44.788;10.366;2022-12-10T02:15:19;16.80;68.40
44477;DHT22;30180;44.788;10.366;2022-12-10T02:17:53;16.80;68.50
44477;DHT22;30180;44.788;10.366;2022-12-10T02:20:25;16.80;68.40
44477;DHT22;30180;44.788;10.366;2022-12-10T02:22:59;16.80;68.40
44477;DHT22;30180;44.788;10.366;2022-12-10T02:25:34;16.80;68.50
44477;DHT22;30180;44.788;10.366;2022-12-10T02:28:12;16.80;68.40
44477;DHT22;30180;44.788;10.366;2022-12-10T02:30:44;16.80;68.40
44477;DHT22;30180;44.788;10.366;2022-12-10T02:33:14;16.80;68.40
44477;DHT22;30180;44.788;10.366;2022-12-10T02:35:46;16.80;68.40
44477;DHT22;30180;44.788;10.366;2022-12-10T02:38:19;16.80;68.40
44477;DHT22;30180;44.788;10.366;2022-12-10T02:40:58;16.80;68.40
44477;DHT22;30180;44.788;10.366;2022-12-10T02:43:28;16.70;68.40
44477;DHT22;30180;44.788;10.366;2022-12-10T02:45:59;16.80;68.50
44477;DHT22;30180;44.788;10.366;2022-12-10T02:48:31;16.80;68.50
44477;DHT22;30180;44.788;10.366;2022-12-10T02:50:59;16.80;68.40
44477;DHT22;30180;44.788;10.366;2022-12-10T02:53:27;16.80;68.40
44477;DHT22;30180;44.788;10.366;2022-12-10T02:56:08;16.70;68.40
44477;DHT22;30180;44.788;10.366;2022-12-10T02:58:43;16.80;68.40
44477;DHT22;30180;44.788;10.366;2022-12-10T03:01:21;16.70;68.40
44477;DHT22;30180;44.788;10.366;2022-12-10T03:03:54;16.70;68.40
44477;DHT22;30180;44.788;10.366;2022-12-10T03:06:30;16.70;68.40
44477;DHT22;30180;44.788;10.366;2022-12-10T03:09:03;16.70;68.40
44477;DHT22;30180;44.788;10.366;2022-12-10T03:11:32;16.70;68.40
44477;DHT22;30180;44.788;10.366;2022-12-10T03:14:05;16.70;68.40
44477;DHT22;30180;44.788;10.366;2022-12-10T03:16:38;16.70;68.40
44477;DHT22;30180;44.788;10.366;2022-12-10T03:19:11;16.70;69.00
44477;DHT22;30180;44.788;10.366;2022-12-10T03:21:41;16.70;68.40
44477;DHT22;30180;44.788;10.366;2022-12-10T03:24:10;16.70;68.40
44477;DHT22;30180;44.788;10.366;2022-12-10T03:26:39;16.70;68.40
44477;DHT22;30180;44.788;10.366;2022-12-10T03:29:12;16.70;68.40
44477;DHT22;30180;44.788;10.366;2022-12-10T03:31:44;16.70;68.40
44477;DHT22;30180;44.788;10.366;2022-12-10T03:34:13;16.70;68.40
44477;DHT22;30180;44.788;10.366;2022-12-10T03:36:42;16.70;68.40
44477;DHT22;30180;44.788;10.366;2022-12-10T03:39:11;16.70;68.30
44477;DHT22;30180;44.788;10.366;2022-12-10T03:41:40;16.70;68.40
44477;DHT22;30180;44.788;10.366;2022-12-10T03:44:08;16.70;68.40
44477;DHT22;30180;44.788;10.366;2022-12-10T03:46:37;16.70;68.40
44477;DHT22;30180;44.788;10.366;2022-12-10T03:49:07;16.70;68.40
44477;DHT22;30180;44.788;10.366;2022-12-10T03:51:35;16.70;68.40
44477;DHT22;30180;44.788;10.366;2022-12-10T03:54:04;16.70;68.30
44477;DHT22;30180;44.788;10.366;2022-12-10T03:56:32;16.70;68.40
44477;DHT22;30180;44.788;10.366;2022-12-10T03:59:00;16.70;68.40
44477;DHT22;30180;44.788;10.366;2022-12-10T04:01:28;16.70;68.40
44477;DHT22;30180;44.788;10.366;2022-12-10T04:03:57;16.60;68.30
44477;DHT22;30180;44.788;10.366;2022-12-10T04:06:26;16.60;68.30
44477;DHT22;30180;44.788;10.366;2022-12-10T04:08:55;16.60;68.30
44477;DHT22;30180;44.788;10.366;2022-12-10T04:11:25;16.60;68.30
44477;DHT22;30180;44.788;10.366;2022-12-10T04:13:53;16.70;68.40
44477;DHT22;30180;44.788;10.366;2022-12-10T04:16:39;16.60;68.30
44477;DHT22;30180;44.788;10.366;2022-12-10T04:19:09;16.60;68.30
44477;DHT22;30180;44.788;10.366;2022-12-10T04:21:41;16.60;68.40
44477;DHT22;30180;44.788;10.366;2022-12-10T04:24:29;16.60;68.40
44477;DHT22;30180;44.788;10.366;2022-12-10T04:27:18;16.70;68.50
44477;DHT22;30180;44.788;10.366;2022-12-10T04:29:46;16.70;68.50
44477;DHT22;30180;44.788;10.366;2022-12-10T04:32:15;16.70;68.50
44477;DHT22;30180;44.788;10.366;2022-12-10T04:34:43;16.70;68.50
44477;DHT22;30180;44.788;10.366;2022-12-10T04:37:13;16.70;68.50
44477;DHT22;30180;44.788;10.366;2022-12-10T04:39:42;16.70;68.60
44477;DHT22;30180;44.788;10.366;2022-12-10T04:42:11;16.70;68.60
44477;DHT22;30180;44.788;10.366;2022-12-10T04:44:39;16.70;68.60
44477;DHT22;30180;44.788;10.366;2022-12-10T04:47:09;16.80;68.70
44477;DHT22;30180;44.788;10.366;2022-12-10T04:49:37;16.70;68.60
44477;DHT22;30180;44.788;10.366;2022-12-10T04:52:07;16.80;68.70
44477;DHT22;30180;44.788;10.366;2022-12-10T04:54:37;16.80;68.70
44477;DHT22;30180;44.788;10.366;2022-12-10T04:57:05;16.80;69.40
44477;DHT22;30180;44.788;10.366;2022-12-10T04:59:35;16.90;68.80
44477;DHT22;30180;44.788;10.366;2022-12-10T05:02:03;16.80;68.80
44477;DHT22;30180;44.788;10.366;2022-12-10T05:04:32;16.90;68.80
44477;DHT22;30180;44.788;10.366;2022-12-10T05:07:00;16.90;68.80
44477;DHT22;30180;44.788;10.366;2022-12-10T05:09:29;16.90;68.90
44477;DHT22;30180;44.788;10.366;2022-12-10T05:11:58;16.90;68.90
44477;DHT22;30180;44.788;10.366;2022-12-10T05:14:26;16.90;68.90
44477;DHT22;30180;44.788;10.366;2022-12-10T05:16:55;17.00;68.90
44477;DHT22;30180;44.788;10.366;2022-12-10T05:19:23;17.00;68.90
44477;DHT22;30180;44.788;10.366;2022-12-10T05:21:54;17.00;69.00
44477;DHT22;30180;44.788;10.366;2022-12-10T05:24:39;17.10;69.00
44477;DHT22;30180;44.788;10.366;2022-12-10T05:27:09;17.10;69.00
44477;DHT22;30180;44.788;10.366;2022-12-10T05:29:37;17.10;69.00
44477;DHT22;30180;44.788;10.366;2022-12-10T05:32:05;17.10;69.10
44477;DHT22;30180;44.788;10.366;2022-12-10T05:34:34;17.10;69.00
44477;DHT22;30180;44.788;10.366;2022-12-10T05:37:02;17.10;69.10
44477;DHT22;30180;44.788;10.366;2022-12-10T05:39:30;17.20;69.20
44477;DHT22;30180;44.788;10.366;2022-12-10T05:41:58;17.20;69.80
44477;DHT22;30180;44.788;10.366;2022-12-10T05:44:28;17.20;69.10
44477;DHT22;30180;44.788;10.366;2022-12-10T05:46:56;17.20;69.20
44477;DHT22;30180;44.788;10.366;2022-12-10T05:49:24;17.20;69.20
44477;DHT22;30180;44.788;10.366;2022-12-10T05:51:54;17.20;69.10
44477;DHT22;30180;44.788;10.366;2022-12-10T05:54:23;17.30;69.20
44477;DHT22;30180;44.788;10.366;2022-12-10T05:56:51;17.30;69.20
44477;DHT22;30180;44.788;10.366;2022-12-10T05:59:20;17.30;69.20
44477;DHT22;30180;44.788;10.366;2022-12-10T06:01:49;17.30;69.10
44477;DHT22;30180;44.788;10.366;2022-12-10T06:04:18;17.30;69.10
44477;DHT22;30180;44.788;10.366;2022-12-10T06:06:46;17.30;69.10
44477;DHT22;30180;44.788;10.366;2022-12-10T06:09:16;17.30;69.10
44477;DHT22;30180;44.788;10.366;2022-12-10T06:11:44;17.30;69.10
44477;DHT22;30180;44.788;10.366;2022-12-10T06:14:12;17.30;69.00
44477;DHT22;30180;44.788;10.366;2022-12-10T06:16:41;17.40;69.10
44477;DHT22;30180;44.788;10.366;2022-12-10T06:19:10;17.40;69.10
44477;DHT22;30180;44.788;10.366;2022-12-10T06:21:39;17.40;69.10
44477;DHT22;30180;44.788;10.366;2022-12-10T06:24:07;17.40;69.00
44477;DHT22;30180;44.788;10.366;2022-12-10T06:26:36;17.40;69.00
44477;DHT22;30180;44.788;10.366;2022-12-10T06:29:04;17.40;69.00
44477;DHT22;30180;44.788;10.366;2022-12-10T06:31:32;17.40;68.90
44477;DHT22;30180;44.788;10.366;2022-12-10T06:34:01;17.40;69.00
44477;DHT22;30180;44.788;10.366;2022-12-10T06:36:30;17.40;68.90
44477;DHT22;30180;44.788;10.366;2022-12-10T06:38:59;17.40;68.90
44477;DHT22;30180;44.788;10.366;2022-12-10T06:41:27;17.40;68.90
44477;DHT22;30180;44.788;10.366;2022-12-10T06:43:56;17.40;68.90
44477;DHT22;30180;44.788;10.366;2022-12-10T06:46:26;17.40;68.90
44477;DHT22;30180;44.788;10.366;2022-12-10T06:48:55;17.40;68.90
44477;DHT22;30180;44.788;10.366;2022-12-10T06:51:24;17.40;68.90
44477;DHT22;30180;44.788;10.366;2022-12-10T06:53:53;17.40;68.90
44477;DHT22;30180;44.788;10.366;2022-12-10T06:56:22;17.40;68.90
44477;DHT22;30180;44.788;10.366;2022-12-10T06:58:50;17.40;68.90
44477;DHT22;30180;44.788;10.366;2022-12-10T07:01:20;17.40;68.90
44477;DHT22;30180;44.788;10.366;2022-12-10T07:03:49;17.40;68.90
44477;DHT22;30180;44.788;10.366;2022-12-10T07:06:18;17.40;68.90
44477;DHT22;30180;44.788;10.366;2022-12-10T07:08:47;17.40;68.90
44477;DHT22;30180;44.788;10.366;2022-12-10T07:11:19;17.40;68.90
44477;DHT22;30180;44.788;10.366;2022-12-10T07:13:48;17.40;68.90
44477;DHT22;30180;44.788;10.366;2022-12-10T07:16:18;17.40;68.90
44477;DHT22;30180;44.788;10.366;2022-12-10T07:18:47;17.40;68.90
44477;DHT22;30180;44.788;10.366;2022-12-10T07:21:20;17.40;68.80
44477;DHT22;30180;44.788;10.366;2022-12-10T07:23:48;17.40;68.80
44477;DHT22;30180;44.788;10.366;2022-12-10T07:26:18;17.40;68.80
44477;DHT22;30180;44.788;10.366;2022-12-10T07:28:47;17.40;68.80
44477;DHT22;30180;44.788;10.366;2022-12-10T07:31:20;17.40;68.80
44477;DHT22;30180;44.788;10.366;2022-12-10T07:33:49;17.40;68.80
44477;DHT22;30180;44.788;10.366;2022-12-10T07:36:18;17.40;68.80
44477;DHT22;30180;44.788;10.366;2022-12-10T07:38:47;17.40;68.80
44477;DHT22;30180;44.788;10.366;2022-12-10T07:41:15;17.40;68.80
44477;DHT22;30180;44.788;10.366;2022-12-10T07:43:46;17.40;68.80
44477;DHT22;30180;44.788;10.366;2022-12-10T07:46:16;17.40;68.70
44477;DHT22;30180;44.788;10.366;2022-12-10T07:48:46;17.40;68.70
44477;DHT22;30180;44.788;10.366;2022-12-10T07:51:15;17.40;68.70
44477;DHT22;30180;44.788;10.366;2022-12-10T07:53:44;17.40;68.70
44477;DHT22;30180;44.788;10.366;2022-12-10T07:56:12;17.40;68.70
44477;DHT22;30180;44.788;10.366;2022-12-10T07:58:42;17.40;68.70
44477;DHT22;30180;44.788;10.366;2022-12-10T08:01:13;17.40;68.70
44477;DHT22;30180;44.788;10.366;2022-12-10T08:03:41;17.40;68.60
44477;DHT22;30180;44.788;10.366;2022-12-10T08:06:11;17.40;68.60
44477;DHT22;30180;44.788;10.366;2022-12-10T08:08:40;17.40;68.60
44477;DHT22;30180;44.788;10.366;2022-12-10T08:11:09;17.40;68.60
44477;DHT22;30180;44.788;10.366;2022-12-10T08:13:38;17.40;68.60
44477;DHT22;30180;44.788;10.366;2022-12-10T08:16:11;17.40;68.60
44477;DHT22;30180;44.788;10.366;2022-12-10T08:18:39;17.40;68.60
44477;DHT22;30180;44.788;10.366;2022-12-10T08:21:09;17.40;68.60
44477;DHT22;30180;44.788;10.366;2022-12-10T08:23:38;17.30;68.50
44477;DHT22;30180;44.788;10.366;2022-12-10T08:26:08;17.30;68.50
44477;DHT22;30180;44.788;10.366;2022-12-10T08:28:37;17.30;68.50
44477;DHT22;30180;44.788;10.366;2022-12-10T08:31:07;17.30;68.50
44477;DHT22;30180;44.788;10.366;2022-12-10T08:33:38;17.30;68.40
44477;DHT22;30180;44.788;10.366;2022-12-10T08:36:08;17.30;68.40
44477;DHT22;30180;44.788;10.366;2022-12-10T08:38:38;17.30;68.40
44477;DHT22;30180;44.788;10.366;2022-12-10T08:41:07;17.30;68.40
44477;DHT22;30180;44.788;10.366;2022-12-10T08:43:35;17.30;68.40
44477;DHT22;30180;44.788;10.366;2022-12-10T08:46:04;17.30;68.40
44477;DHT22;30180;44.788;10.366;2022-12-10T08:48:33;17.30;68.40
44477;DHT22;30180;44.788;10.366;2022-12-10T08:51:04;17.20;68.40
44477;DHT22;30180;44.788;10.366;2022-12-10T08:53:33;17.20;68.30
44477;DHT22;30180;44.788;10.366;2022-12-10T08:56:02;17.20;68.30
44477;DHT22;30180;44.788;10.366;2022-12-10T08:58:30;17.20;68.30
44477;DHT22;30180;44.788;10.366;2022-12-10T09:00:58;17.20;68.30
44477;DHT22;30180;44.788;10.366;2022-12-10T09:03:28;17.20;68.30
44477;DHT22;30180;44.788;10.366;2022-12-10T09:05:59;17.20;68.30
44477;DHT22;30180;44.788;10.366;2022-12-10T09:08:30;17.20;68.30
44477;DHT22;30180;44.788;10.366;2022-12-10T09:11:04;17.20;68.30
44477;DHT22;30180;44.788;10.366;2022-12-10T09:13:32;17.20;68.40
44477;DHT22;30180;44.788;10.366;2022-12-10T09:16:01;17.10;68.30
44477;DHT22;30180;44.788;10.366;2022-12-10T09:18:29;17.10;68.30
44477;DHT22;30180;44.788;10.366;2022-12-10T09:20:58;17.10;68.30
44477;DHT22;30180;44.788;10.366;2022-12-10T09:23:26;17.20;68.40
44477;DHT22;30180;44.788;10.366;2022-12-10T09:25:55;17.10;68.30
44477;DHT22;30180;44.788;10.366;2022-12-10T09:28:24;17.10;68.30
44477;DHT22;30180;44.788;10.366;2022-12-10T09:30:56;17.10;68.30
44477;DHT22;30180;44.788;10.366;2022-12-10T09:33:25;17.10;68.30
44477;DHT22;30180;44.788;10.366;2022-12-10T09:35:53;17.10;68.30
44477;DHT22;30180;44.788;10.366;2022-12-10T09:38:21;17.10;68.30
44477;DHT22;30180;44.788;10.366;2022-12-10T09:40:59;17.10;68.30
44477;DHT22;30180;44.788;10.366;2022-12-10T09:43:39;17.10;68.30
44477;DHT22;30180;44.788;10.366;2022-12-10T09:46:16;17.10;68.30
44477;DHT22;30180;44.788;10.366;2022-12-10T09:48:54;17.10;68.30
44477;DHT22;30180;44.788;10.366;2022-12-10T09:51:29;17.10;68.30
44477;DHT22;30180;44.788;10.366;2022-12-10T09:54:01;17.10;68.30
44477;DHT22;30180;44.788;10.366;2022-12-10T09:56:34;17.00;68.20
44477;DHT22;30180;44.788;10.366;2022-12-10T09:59:13;17.10;68.20
44477;DHT22;30180;44.788;10.366;2022-12-10T10:01:44;17.00;68.20
44477;DHT22;30180;44.788;10.366;2022-12-10T10:04:13;17.00;68.20
44477;DHT22;30180;44.788;10.366;2022-12-10T10:06:42;17.00;68.20
44477;DHT22;30180;44.788;10.366;2022-12-10T10:09:11;17.10;68.20
44477;DHT22;30180;44.788;10.366;2022-12-10T10:11:42;17.00;68.20
44477;DHT22;30180;44.788;10.366;2022-12-10T10:14:14;17.00;68.30
44477;DHT22;30180;44.788;10.366;2022-12-10T10:16:47;17.00;68.20
44477;DHT22;30180;44.788;10.366;2022-12-10T10:19:19;17.00;68.30
44477;DHT22;30180;44.788;10.366;2022-12-10T10:21:50;17.00;68.30
44477;DHT22;30180;44.788;10.366;2022-12-10T10:24:20;17.00;68.30
44477;DHT22;30180;44.788;10.366;2022-12-10T10:26:52;17.00;68.30
44477;DHT22;30180;44.788;10.366;2022-12-10T10:29:21;17.00;68.30
44477;DHT22;30180;44.788;10.366;2022-12-10T10:32:12;17.00;68.30
44477;DHT22;30180;44.788;10.366;2022-12-10T10:34:41;17.00;68.40
44477;DHT22;30180;44.788;10.366;2022-12-10T10:37:15;17.00;68.40
44477;DHT22;30180;44.788;10.366;2022-12-10T10:39:47;17.10;68.40
44477;DHT22;30180;44.788;10.366;2022-12-10T10:42:27;17.10;68.40
44477;DHT22;30180;44.788;10.366;2022-12-10T10:44:56;17.10;68.50
44477;DHT22;30180;44.788;10.366;2022-12-10T10:47:27;17.10;68.50
44477;DHT22;30180;44.788;10.366;2022-12-10T10:50:01;17.10;68.50
44477;DHT22;30180;44.788;10.366;2022-12-10T10:52:36;17.10;68.60
44477;DHT22;30180;44.788;10.366;2022-12-10T10:55:09;17.20;68.60
44477;DHT22;30180;44.788;10.366;2022-12-10T10:57:55;17.10;68.60
44477;DHT22;30180;44.788;10.366;2022-12-10T11:00:24;17.10;68.60
44477;DHT22;30180;44.788;10.366;2022-12-10T11:02:52;17.20;68.70
44477;DHT22;30180;44.788;10.366;2022-12-10T11:05:22;17.20;68.70
44477;DHT22;30180;44.788;10.366;2022-12-10T11:07:59;17.20;68.70
44477;DHT22;30180;44.788;10.366;2022-12-10T11:10:28;17.20;68.70
44477;DHT22;30180;44.788;10.366;2022-12-10T11:13:03;17.20;68.70
44477;DHT22;30180;44.788;10.366;2022-12-10T11:15:34;17.30;68.80
44477;DHT22;30180;44.788;10.366;2022-12-10T11:18:09;17.30;68.80
44477;DHT22;30180;44.788;10.366;2022-12-10T11:20:57;17.30;68.70
44477;DHT22;30180;44.788;10.366;2022-12-10T11:23:28;17.30;68.70
44477;DHT22;30180;44.788;10.366;2022-12-10T11:26:05;17.30;68.70
44477;DHT22;30180;44.788;10.366;2022-12-10T11:28:47;17.30;68.70
44477;DHT22;30180;44.788;10.366;2022-12-10T11:31:30;17.30;68.70
44477;DHT22;30180;44.788;10.366;2022-12-10T11:34:06;17.30;68.70
44477;DHT22;30180;44.788;10.366;2022-12-10T11:36:42;17.30;68.70
44477;DHT22;30180;44.788;10.366;2022-12-10T11:39:27;17.40;68.70
44477;DHT22;30180;44.788;10.366;2022-12-10T11:42:07;17.30;68.70
44477;DHT22;30180;44.788;10.366;2022-12-10T11:44:47;17.30;68.70
44477;DHT22;30180;44.788;10.366;2022-12-10T11:47:35;17.40;68.70
44477;DHT22;30180;44.788;10.366;2022-12-10T11:50:26;17.40;68.70
44477;DHT22;30180;44.788;10.366;2022-12-10T11:56:04;17.30;68.60
44477;DHT22;30180;44.788;10.366;2022-12-10T11:58:48;17.30;68.50
44477;DHT22;30180;44.788;10.366;2022-12-10T12:01:29;17.40;68.60
44477;DHT22;30180;44.788;10.366;2022-12-10T12:04:25;17.30;68.70
44477;DHT22;30180;44.788;10.366;2022-12-10T12:07:09;17.30;68.50
44477;DHT22;30180;44.788;10.366;2022-12-10T12:09:54;17.30;68.50
44477;DHT22;30180;44.788;10.366;2022-12-10T12:12:34;17.30;68.50
44477;DHT22;30180;44.788;10.366;2022-12-10T12:15:11;17.30;68.50
44477;DHT22;30180;44.788;10.366;2022-12-10T12:17:43;17.30;68.40
44477;DHT22;30180;44.788;10.366;2022-12-10T12:20:17;17.30;68.40
44477;DHT22;30180;44.788;10.366;2022-12-10T12:22:51;17.30;68.50
44477;DHT22;30180;44.788;10.366;2022-12-10T12:25:25;17.30;68.50
44477;DHT22;30180;44.788;10.366;2022-12-10T12:28:01;17.30;68.50
44477;DHT22;30180;44.788;10.366;2022-12-10T12:30:32;17.30;69.10
44477;DHT22;30180;44.788;10.366;2022-12-10T12:33:08;17.30;68.50
44477;DHT22;30180;44.788;10.366;2022-12-10T12:35:42;17.30;68.50
44477;DHT22;30180;44.788;10.366;2022-12-10T12:38:26;17.30;68.40
44477;DHT22;30180;44.788;10.366;2022-12-10T12:40:58;17.20;68.40
44477;DHT22;30180;44.788;10.366;2022-12-10T12:43:37;17.20;68.40
44477;DHT22;30180;44.788;10.366;2022-12-10T12:46:12;17.30;68.40
44477;DHT22;30180;44.788;10.366;2022-12-10T12:48:51;17.20;68.30
44477;DHT22;30180;44.788;10.366;2022-12-10T12:51:24;17.20;68.40
44477;DHT22;30180;44.788;10.366;2022-12-10T12:53:54;17.20;68.40
44477;DHT22;30180;44.788;10.366;2022-12-10T12:56:31;17.20;68.40
44477;DHT22;30180;44.788;10.366;2022-12-10T12:59:11;17.20;68.40
44477;DHT22;30180;44.788;10.366;2022-12-10T13:01:49;17.20;68.30
44477;DHT22;30180;44.788;10.366;2022-12-10T13:04:20;17.20;68.30
44477;DHT22;30180;44.788;10.366;2022-12-10T13:10:18;17.20;68.40
44477;DHT22;30180;44.788;10.366;2022-12-10T13:12:51;17.10;68.30
44477;DHT22;30180;44.788;10.366;2022-12-10T13:15:21;17.10;68.30
44477;DHT22;30180;44.788;10.366;2022-12-10T13:18:19;17.10;68.30
44477;DHT22;30180;44.788;10.366;2022-12-10T13:20:50;17.10;68.30
44477;DHT22;30180;44.788;10.366;2022-12-10T13:23:32;17.10;68.30
44477;DHT22;30180;44.788;10.366;2022-12-10T13:26:22;17.20;68.30
44477;DHT22;30180;44.788;10.366;2022-12-10T13:28:53;17.10;68.30
44477;DHT22;30180;44.788;10.366;2022-12-10T13:31:34;17.10;68.30
44477;DHT22;30180;44.788;10.366;2022-12-10T13:34:23;17.20;68.30
44477;DHT22;30180;44.788;10.366;2022-12-10T13:37:27;17.10;68.30
44477;DHT22;30180;44.788;10.366;2022-12-10T13:40:09;17.10;68.30
44477;DHT22;30180;44.788;10.366;2022-12-10T13:42:43;17.10;68.20
44477;DHT22;30180;44.788;10.366;2022-12-10T13:45:32;17.10;68.30
44477;DHT22;30180;44.788;10.366;2022-12-10T13:48:26;17.10;68.20
44477;DHT22;30180;44.788;10.366;2022-12-10T13:51:20;17.10;68.20
44477;DHT22;30180;44.788;10.366;2022-12-10T13:54:05;17.10;68.30
44477;DHT22;30180;44.788;10.366;2022-12-10T13:56:50;17.10;68.20
44477;DHT22;30180;44.788;10.366;2022-12-10T13:59:29;17.10;68.20
44477;DHT22;30180;44.788;10.366;2022-12-10T14:02:13;17.10;68.20
44477;DHT22;30180;44.788;10.366;2022-12-10T14:05:07;17.00;68.20
44477;DHT22;30180;44.788;10.366;2022-12-10T14:07:39;17.00;68.20
44477;DHT22;30180;44.788;10.366;2022-12-10T14:10:15;17.10;68.30
44477;DHT22;30180;44.788;10.366;2022-12-10T14:12:44;17.10;68.30
44477;DHT22;30180;44.788;10.366;2022-12-10T14:15:17;17.00;68.20
44477;DHT22;30180;44.788;10.366;2022-12-10T14:17:50;17.00;68.20
44477;DHT22;30180;44.788;10.366;2022-12-10T14:20:21;17.00;68.20
44477;DHT22;30180;44.788;10.366;2022-12-10T14:22:52;17.00;68.20
44477;DHT22;30180;44.788;10.366;2022-12-10T14:25:43;17.00;68.20
44477;DHT22;30180;44.788;10.366;2022-12-10T14:28:13;17.00;68.20
44477;DHT22;30180;44.788;10.366;2022-12-10T14:30:43;17.00;68.20
44477;DHT22;30180;44.788;10.366;2022-12-10T14:33:14;17.00;68.20
44477;DHT22;30180;44.788;10.366;2022-12-10T14:35:46;17.00;68.20
44477;DHT22;30180;44.788;10.366;2022-12-10T14:38:18;17.00;68.20
44477;DHT22;30180;44.788;10.366;2022-12-10T14:40:49;17.00;68.20
44477;DHT22;30180;44.788;10.366;2022-12-10T14:43:20;17.00;68.20
44477;DHT22;30180;44.788;10.366;2022-12-10T14:45:52;17.00;68.10
44477;DHT22;30180;44.788;10.366;2022-12-10T14:48:23;17.00;68.10
44477;DHT22;30180;44.788;10.366;2022-12-10T14:50:52;17.00;68.20
44477;DHT22;30180;44.788;10.366;2022-12-10T14:53:23;17.00;68.20
44477;DHT22;30180;44.788;10.366;2022-12-10T14:56:02;17.00;68.10
44477;DHT22;30180;44.788;10.366;2022-12-10T14:58:37;17.00;68.10
44477;DHT22;30180;44.788;10.366;2022-12-10T15:01:13;16.90;68.10
44477;DHT22;30180;44.788;10.366;2022-12-10T15:03:45;16.90;68.10
44477;DHT22;30180;44.788;10.366;2022-12-10T15:06:17;17.00;68.20
44477;DHT22;30180;44.788;10.366;2022-12-10T15:08:46;16.90;68.10
44477;DHT22;30180;44.788;10.366;2022-12-10T15:11:18;16.90;68.10
44477;DHT22;30180;44.788;10.366;2022-12-10T15:13:48;16.90;68.10
44477;DHT22;30180;44.788;10.366;2022-12-10T15:16:19;16.90;68.10
44477;DHT22;30180;44.788;10.366;2022-12-10T15:18:48;16.90;68.20
44477;DHT22;30180;44.788;10.366;2022-12-10T15:21:21;16.90;68.10
44477;DHT22;30180;44.788;10.366;2022-12-10T15:23:50;16.90;68.20
44477;DHT22;30180;44.788;10.366;2022-12-10T15:26:21;16.90;68.20
44477;DHT22;30180;44.788;10.366;2022-12-10T15:28:52;16.90;68.20
44477;DHT22;30180;44.788;10.366;2022-12-10T15:31:22;16.90;68.20
44477;DHT22;30180;44.788;10.366;2022-12-10T15:33:58;16.90;68.30
44477;DHT22;30180;44.788;10.366;2022-12-10T15:36:36;16.90;68.30
44477;DHT22;30180;44.788;10.366;2022-12-10T15:39:13;16.90;68.30
44477;DHT22;30180;44.788;10.366;2022-12-10T15:41:46;17.00;68.40
44477;DHT22;30180;44.788;10.366;2022-12-10T15:44:23;17.00;68.40
44477;DHT22;30180;44.788;10.366;2022-12-10T15:46:59;17.00;68.40
44477;DHT22;30180;44.788;10.366;2022-12-10T15:49:27;17.00;68.40
44477;DHT22;30180;44.788;10.366;2022-12-10T15:51:55;17.00;68.50
44477;DHT22;30180;44.788;10.366;2022-12-10T15:54:31;17.00;68.40
44477;DHT22;30180;44.788;10.366;2022-12-10T15:57:06;17.00;68.50